createdAt,value
2018-07-21T00:01:01.455Z,1012.96
2018-07-21T00:02:10.318Z,1012.94
2018-07-21T00:03:19.674Z,1012.98
2018-07-21T00:04:28.536Z,1012.95
2018-07-21T00:05:37.399Z,1012.93
2018-07-21T00:06:46.540Z,1012.9
2018-07-21T00:07:55.403Z,1012.95
2018-07-21T00:09:04.619Z,1012.95
2018-07-21T00:10:13.759Z,1012.89
2018-07-21T00:11:22.620Z,1012.94
2018-07-21T00:12:31.485Z,1012.95
2018-07-21T00:13:40.623Z,1012.87
2018-07-21T00:14:49.583Z,1012.91
2018-07-21T00:15:58.721Z,1012.88
2018-07-21T00:17:07.584Z,1012.87
2018-07-21T00:18:16.730Z,1012.85
2018-07-21T00:19:25.596Z,1012.87
2018-07-21T00:20:34.609Z,1012.82
2018-07-21T00:21:43.470Z,1012.83
2018-07-21T00:22:52.333Z,1012.84
2018-07-21T00:24:01.197Z,1012.85
2018-07-21T00:25:10.059Z,1012.85
2018-07-21T00:26:19.272Z,1012.86
2018-07-21T00:27:28.138Z,1012.86
2018-07-21T00:28:36.995Z,1012.86
2018-07-21T00:29:46.412Z,1012.88
2018-07-21T00:30:55.552Z,1012.82
2018-07-21T00:32:04.565Z,1012.81
2018-07-21T00:33:13.706Z,1012.86
2018-07-21T00:34:22.569Z,1012.82
2018-07-21T00:35:31.727Z,1012.85
2018-07-21T00:36:40.592Z,1012.88
2018-07-21T00:37:49.554Z,1012.88
2018-07-21T00:38:58.690Z,1012.94
2018-07-21T00:40:07.553Z,1012.92
2018-07-21T00:41:16.416Z,1012.88
2018-07-21T00:42:25.279Z,1012.91
2018-07-21T00:43:34.141Z,1012.89
2018-07-21T00:44:43.002Z,1012.87
2018-07-21T00:45:51.866Z,1012.84
2018-07-21T00:47:00.725Z,1012.87
2018-07-21T00:48:09.588Z,1012.81
2018-07-21T00:49:18.450Z,1012.83
2018-07-21T00:50:27.317Z,1012.82
2018-07-21T00:51:36.172Z,1012.77
2018-07-21T00:52:45.354Z,1012.77
2018-07-21T00:53:54.217Z,1012.78
2018-07-21T00:55:03.078Z,1012.74
2018-07-21T00:56:11.940Z,1012.76
2018-07-21T00:57:20.826Z,1012.75
2018-07-21T00:58:29.668Z,1012.74
2018-07-21T00:59:38.532Z,1012.76
2018-07-21T01:00:47.441Z,1012.73
2018-07-21T01:01:56.305Z,1012.73
2018-07-21T01:03:05.166Z,1012.77
2018-07-21T01:04:14.583Z,1012.75
2018-07-21T01:05:23.447Z,1012.79
2018-07-21T01:06:32.933Z,1012.8
2018-07-21T01:07:41.793Z,1012.79
2018-07-21T01:08:50.652Z,1012.8
2018-07-21T01:09:59.515Z,1012.8
2018-07-21T01:11:08.383Z,1012.8
2018-07-21T01:12:17.523Z,1012.8
2018-07-21T01:13:26.385Z,1012.76
2018-07-21T01:14:35.250Z,1012.77
2018-07-21T01:15:44.383Z,1012.75
2018-07-21T01:16:53.246Z,1012.75
2018-07-21T01:18:02.109Z,1012.73
2018-07-21T01:19:10.969Z,1012.75
2018-07-21T01:20:20.389Z,1012.74
2018-07-21T01:21:29.249Z,1012.71
2018-07-21T01:22:38.111Z,1012.7
2018-07-21T01:23:47.123Z,1012.72
2018-07-21T01:24:55.984Z,1012.69
2018-07-21T01:26:05.122Z,1012.69
2018-07-21T01:27:13.982Z,1012.66
2018-07-21T01:28:22.845Z,1012.63
2018-07-21T01:29:31.764Z,1012.68
2018-07-21T01:30:40.566Z,1012.65
2018-07-21T01:31:49.429Z,1012.64
2018-07-21T01:32:58.292Z,1012.64
2018-07-21T01:34:07.430Z,1012.67
2018-07-21T01:35:16.294Z,1012.63
2018-07-21T01:36:25.156Z,1012.64
2018-07-21T01:37:34.020Z,1012.6
2018-07-21T01:38:43.159Z,1012.66
2018-07-21T01:39:52.294Z,1012.67
2018-07-21T01:41:01.780Z,1012.67
2018-07-21T01:42:10.646Z,1012.65
2018-07-21T01:43:19.506Z,1012.67
2018-07-21T01:44:28.371Z,1012.7
2018-07-21T01:45:37.232Z,1012.69
2018-07-21T01:46:46.245Z,1012.66
2018-07-21T01:47:55.107Z,1012.65
2018-07-21T01:49:03.965Z,1012.64
2018-07-21T01:50:12.827Z,1012.66
2018-07-21T01:51:21.691Z,1012.61
2018-07-21T01:52:30.602Z,1012.6
2018-07-21T01:53:39.739Z,1012.58
2018-07-21T01:54:48.600Z,1012.57
2018-07-21T01:55:57.461Z,1012.56
2018-07-21T01:57:06.607Z,1012.56
2018-07-21T01:58:16.109Z,1012.61
2018-07-21T01:59:25.246Z,1012.59
2018-07-21T02:00:34.109Z,1012.62
2018-07-21T02:01:42.972Z,1012.58
2018-07-21T02:02:51.834Z,1012.57
2018-07-21T02:04:00.695Z,1012.61
2018-07-21T02:05:09.554Z,1012.6
2018-07-21T02:06:18.418Z,1012.55
2018-07-21T02:07:27.280Z,1012.56
2018-07-21T02:08:36.140Z,1012.57
2018-07-21T02:09:45.364Z,1012.57
2018-07-21T02:10:54.215Z,1012.6
2018-07-21T02:12:03.073Z,1012.58
2018-07-21T02:13:11.935Z,1012.58
2018-07-21T02:14:20.796Z,1012.55
2018-07-21T02:15:30.007Z,1012.57
2018-07-21T02:16:38.869Z,1012.64
2018-07-21T02:17:48.287Z,1012.65
2018-07-21T02:18:57.147Z,1012.61
2018-07-21T02:20:06.008Z,1012.62
2018-07-21T02:21:15.144Z,1012.67
2018-07-21T02:22:24.008Z,1012.67
2018-07-21T02:23:33.144Z,1012.66
2018-07-21T02:24:42.006Z,1012.73
2018-07-21T02:25:50.868Z,1012.75
2018-07-21T02:26:59.729Z,1012.78
2018-07-21T02:28:08.590Z,1012.75
2018-07-21T02:29:17.730Z,1012.76
2018-07-21T02:30:26.596Z,1012.72
2018-07-21T02:31:36.013Z,1012.73
2018-07-21T02:32:45.202Z,1012.74
2018-07-21T02:33:54.355Z,1012.74
2018-07-21T02:35:03.215Z,1012.74
2018-07-21T02:36:12.373Z,1012.72
2018-07-21T02:37:21.507Z,1012.69
2018-07-21T02:38:30.795Z,1012.71
2018-07-21T02:39:39.664Z,1012.78
2018-07-21T02:40:48.803Z,1012.72
2018-07-21T02:41:57.951Z,1012.74
2018-07-21T02:43:06.820Z,1012.71
2018-07-21T02:44:15.955Z,1012.72
2018-07-21T02:45:25.095Z,1012.67
2018-07-21T02:46:34.665Z,1012.68
2018-07-21T02:47:44.357Z,1012.66
2018-07-21T02:48:53.506Z,1012.64
2018-07-21T02:50:02.516Z,1012.65
2018-07-21T02:51:11.931Z,1012.62
2018-07-21T02:52:20.797Z,1012.61
2018-07-21T02:53:29.658Z,1012.59
2018-07-21T02:54:38.800Z,1012.55
2018-07-21T02:55:47.721Z,1012.56
2018-07-21T02:56:56.589Z,1012.54
2018-07-21T02:58:05.450Z,1012.5
2018-07-21T02:59:14.869Z,1012.5
2018-07-21T03:00:23.735Z,1012.5
2018-07-21T03:01:32.876Z,1012.49
2018-07-21T03:02:41.745Z,1012.49
2018-07-21T03:03:51.174Z,1012.47
2018-07-21T03:05:00.314Z,1012.45
2018-07-21T03:06:10.023Z,1012.45
2018-07-21T03:07:19.798Z,1012.49
2018-07-21T03:08:28.666Z,1012.49
2018-07-21T03:09:37.812Z,1012.5
2018-07-21T03:10:46.977Z,1012.5
2018-07-21T03:11:56.124Z,1012.47
2018-07-21T03:13:05.413Z,1012.5
2018-07-21T03:14:14.551Z,1012.51
2018-07-21T03:15:23.411Z,1012.45
2018-07-21T03:16:32.277Z,1012.49
2018-07-21T03:17:41.689Z,1012.48
2018-07-21T03:18:50.561Z,1012.51
2018-07-21T03:19:59.419Z,1012.47
2018-07-21T03:21:08.567Z,1012.46
2018-07-21T03:22:17.709Z,1012.46
2018-07-21T03:23:26.578Z,1012.44
2018-07-21T03:24:35.712Z,1012.48
2018-07-21T03:25:44.576Z,1012.42
2018-07-21T03:26:53.991Z,1012.44
2018-07-21T03:28:02.856Z,1012.45
2018-07-21T03:29:11.717Z,1012.46
2018-07-21T03:30:20.579Z,1012.43
2018-07-21T03:31:29.719Z,1012.42
2018-07-21T03:32:38.859Z,1012.43
2018-07-21T03:33:47.716Z,1012.43
2018-07-21T03:34:56.578Z,1012.43
2018-07-21T03:36:05.793Z,1012.44
2018-07-21T03:37:14.705Z,1012.42
2018-07-21T03:38:23.564Z,1012.46
2018-07-21T03:39:32.426Z,1012.49
2018-07-21T03:40:41.288Z,1012.48
2018-07-21T03:41:50.251Z,1012.46
2018-07-21T03:42:59.117Z,1012.5
2018-07-21T03:44:08.254Z,1012.46
2018-07-21T03:45:17.114Z,1012.47
2018-07-21T03:46:25.976Z,1012.48
2018-07-21T03:47:34.933Z,1012.44
2018-07-21T03:48:43.793Z,1012.46
2018-07-21T03:49:52.928Z,1012.47
2018-07-21T03:51:02.071Z,1012.45
2018-07-21T03:52:11.211Z,1012.46
2018-07-21T03:53:20.074Z,1012.45
2018-07-21T03:54:29.252Z,1012.5
2018-07-21T03:55:38.117Z,1012.49
2018-07-21T03:56:46.980Z,1012.49
2018-07-21T03:57:56.120Z,1012.45
2018-07-21T03:59:05.080Z,1012.43
2018-07-21T04:00:13.941Z,1012.45
2018-07-21T04:01:23.079Z,1012.46
2018-07-21T04:02:32.220Z,1012.46
2018-07-21T04:03:41.081Z,1012.47
2018-07-21T04:04:50.222Z,1012.4
2018-07-21T04:05:59.634Z,1012.45
2018-07-21T04:07:08.772Z,1012.41
2018-07-21T04:08:17.634Z,1012.42
2018-07-21T04:09:26.494Z,1012.45
2018-07-21T04:10:35.357Z,1012.47
2018-07-21T04:11:44.221Z,1012.45
2018-07-21T04:12:53.082Z,1012.47
2018-07-21T04:14:01.943Z,1012.46
2018-07-21T04:15:11.081Z,1012.48
2018-07-21T04:16:19.951Z,1012.51
2018-07-21T04:17:28.808Z,1012.5
2018-07-21T04:18:37.668Z,1012.51
2018-07-21T04:19:46.535Z,1012.53
2018-07-21T04:20:55.398Z,1012.52
2018-07-21T04:22:04.700Z,1012.48
2018-07-21T04:23:13.559Z,1012.51
2018-07-21T04:24:22.697Z,1012.47
2018-07-21T04:25:31.560Z,1012.45
2018-07-21T04:26:40.421Z,1012.44
2018-07-21T04:27:49.335Z,1012.41
2018-07-21T04:28:58.204Z,1012.45
2018-07-21T04:30:07.341Z,1012.43
2018-07-21T04:31:16.205Z,1012.42
2018-07-21T04:32:25.342Z,1012.41
2018-07-21T04:33:34.203Z,1012.38
2018-07-21T04:34:43.063Z,1012.37
2018-07-21T04:35:51.926Z,1012.41
2018-07-21T04:37:01.063Z,1012.37
2018-07-21T04:38:09.925Z,1012.37
2018-07-21T04:39:18.781Z,1012.36
2018-07-21T04:40:27.640Z,1012.36
2018-07-21T04:41:36.503Z,1012.35
2018-07-21T04:42:45.921Z,1012.36
2018-07-21T04:43:55.062Z,1012.37
2018-07-21T04:45:04.199Z,1012.41
2018-07-21T04:46:13.062Z,1012.41
2018-07-21T04:47:22.198Z,1012.38
2018-07-21T04:48:31.063Z,1012.41
2018-07-21T04:49:39.923Z,1012.42
2018-07-21T04:50:48.881Z,1012.45
2018-07-21T04:51:58.031Z,1012.43
2018-07-21T04:53:06.896Z,1012.42
2018-07-21T04:54:15.754Z,1012.43
2018-07-21T04:55:24.618Z,1012.42
2018-07-21T04:56:33.636Z,1012.44
2018-07-21T04:57:42.491Z,1012.46
2018-07-21T04:58:51.357Z,1012.49
2018-07-21T05:00:00.218Z,1012.46
2018-07-21T05:01:09.152Z,1012.46
2018-07-21T05:02:18.848Z,1012.47
2018-07-21T05:03:27.705Z,1012.46
2018-07-21T05:04:36.569Z,1012.49
2018-07-21T05:05:45.709Z,1012.52
2018-07-21T05:06:54.570Z,1012.52
2018-07-21T05:08:03.809Z,1012.54
2018-07-21T05:09:12.670Z,1012.55
2018-07-21T05:10:21.531Z,1012.53
2018-07-21T05:11:30.672Z,1012.5
2018-07-21T05:12:39.534Z,1012.53
2018-07-21T05:13:48.445Z,1012.51
2018-07-21T05:14:57.587Z,1012.5
2018-07-21T05:16:06.453Z,1012.46
2018-07-21T05:17:15.314Z,1012.44
2018-07-21T05:18:24.175Z,1012.42
2018-07-21T05:19:33.036Z,1012.46
2018-07-21T05:20:41.900Z,1012.45
2018-07-21T05:21:51.034Z,1012.4
2018-07-21T05:22:59.896Z,1012.42
2018-07-21T05:24:08.759Z,1012.41
2018-07-21T05:25:17.893Z,1012.42
2018-07-21T05:26:26.753Z,1012.42
2018-07-21T05:27:35.616Z,1012.45
2018-07-21T05:28:44.476Z,1012.43
2018-07-21T05:29:53.338Z,1012.43
2018-07-21T05:31:02.299Z,1012.43
2018-07-21T05:32:11.163Z,1012.44
2018-07-21T05:33:20.029Z,1012.44
2018-07-21T05:34:28.889Z,1012.45
2018-07-21T05:35:37.749Z,1012.46
2018-07-21T05:36:46.762Z,1012.45
2018-07-21T05:37:55.626Z,1012.42
2018-07-21T05:39:36.543Z,1012.48
2018-07-21T05:40:45.403Z,1012.49
2018-07-21T05:41:54.263Z,1012.46
2018-07-21T05:43:03.404Z,1012.47
2018-07-21T05:44:12.265Z,1012.49
2018-07-21T05:45:21.398Z,1012.49
2018-07-21T05:46:30.259Z,1012.48
2018-07-21T05:47:39.268Z,1012.5
2018-07-21T05:48:48.128Z,1012.5
2018-07-21T05:49:56.988Z,1012.46
2018-07-21T05:51:05.850Z,1012.49
2018-07-21T05:52:14.713Z,1012.52
2018-07-21T05:53:24.000Z,1012.55
2018-07-21T05:54:32.919Z,1012.5
2018-07-21T05:55:41.728Z,1012.53
2018-07-21T05:56:50.590Z,1012.57
2018-07-21T05:57:59.450Z,1012.52
2018-07-21T05:59:08.665Z,1012.52
2018-07-21T06:00:17.804Z,1012.52
2018-07-21T06:01:26.667Z,1012.45
2018-07-21T06:02:35.531Z,1012.51
2018-07-21T06:03:44.492Z,1012.47
2018-07-21T06:04:53.349Z,1012.52
2018-07-21T06:06:02.209Z,1012.5
2018-07-21T06:07:11.071Z,1012.55
2018-07-21T06:08:19.940Z,1012.59
2018-07-21T06:09:28.800Z,1012.59
2018-07-21T06:10:37.766Z,1012.54
2018-07-21T06:11:46.628Z,1012.57
2018-07-21T06:12:55.491Z,1012.57
2018-07-21T06:14:04.352Z,1012.59
2018-07-21T06:15:13.216Z,1012.57
2018-07-21T06:16:22.229Z,1012.53
2018-07-21T06:17:31.099Z,1012.54
2018-07-21T06:18:40.275Z,1012.57
2018-07-21T06:19:49.450Z,1012.55
2018-07-21T06:20:58.316Z,1012.54
2018-07-21T06:22:07.632Z,1012.52
2018-07-21T06:23:16.485Z,1012.52
2018-07-21T06:24:25.352Z,1012.55
2018-07-21T06:25:34.774Z,1012.55
2018-07-21T06:26:43.637Z,1012.59
2018-07-21T06:27:53.127Z,1012.52
2018-07-21T06:29:01.990Z,1012.51
2018-07-21T06:30:10.855Z,1012.51
2018-07-21T06:31:20.317Z,1012.53
2018-07-21T06:32:29.177Z,1012.57
2018-07-21T06:33:38.391Z,1012.55
2018-07-21T06:34:47.251Z,1012.6
2018-07-21T06:35:56.114Z,1012.56
2018-07-21T06:37:04.976Z,1012.61
2018-07-21T06:38:13.838Z,1012.62
2018-07-21T06:39:22.750Z,1012.61
2018-07-21T06:40:31.615Z,1012.65
2018-07-21T06:41:41.033Z,1012.6
2018-07-21T06:42:49.893Z,1012.65
2018-07-21T06:43:58.836Z,1012.66
2018-07-21T06:45:08.185Z,1012.66
2018-07-21T06:46:17.046Z,1012.67
2018-07-21T06:47:25.910Z,1012.68
2018-07-21T06:48:34.772Z,1012.64
2018-07-21T06:49:43.909Z,1012.64
2018-07-21T06:50:52.821Z,1012.64
2018-07-21T06:52:01.687Z,1012.69
2018-07-21T06:53:10.548Z,1012.69
2018-07-21T06:54:19.415Z,1012.7
2018-07-21T06:55:28.925Z,1012.69
2018-07-21T06:56:37.788Z,1012.71
2018-07-21T06:57:47.217Z,1012.72
2018-07-21T06:58:56.358Z,1012.72
2018-07-21T07:00:05.860Z,1012.7
2018-07-21T07:01:14.728Z,1012.73
2018-07-21T07:02:23.590Z,1012.74
2018-07-21T07:03:32.453Z,1012.78
2018-07-21T07:04:41.386Z,1012.7
2018-07-21T07:05:51.251Z,1012.8
2018-07-21T07:07:00.116Z,1012.74
2018-07-21T07:08:09.079Z,1012.74
2018-07-21T07:09:18.213Z,1012.74
2018-07-21T07:10:27.076Z,1012.71
2018-07-21T07:11:35.936Z,1012.69
2018-07-21T07:12:44.804Z,1012.69
2018-07-21T07:13:53.665Z,1012.68
2018-07-21T07:15:02.529Z,1012.69
2018-07-21T07:16:11.392Z,1012.68
2018-07-21T07:17:20.643Z,1012.65
2018-07-21T07:18:29.501Z,1012.68
2018-07-21T07:19:38.363Z,1012.64
2018-07-21T07:20:47.226Z,1012.67
2018-07-21T07:21:56.089Z,1012.65
2018-07-21T07:23:04.953Z,1012.66
2018-07-21T07:24:13.816Z,1012.62
2018-07-21T07:25:23.111Z,1012.64
2018-07-21T07:26:31.974Z,1012.63
2018-07-21T07:27:41.115Z,1012.61
2018-07-21T07:28:49.977Z,1012.66
2018-07-21T07:29:59.116Z,1012.64
2018-07-21T07:31:07.979Z,1012.67
2018-07-21T07:32:16.841Z,1012.7
2018-07-21T07:33:25.704Z,1012.7
2018-07-21T07:34:34.565Z,1012.7
2018-07-21T07:35:43.431Z,1012.7
2018-07-21T07:36:52.446Z,1012.74
2018-07-21T07:38:01.312Z,1012.74
2018-07-21T07:39:10.174Z,1012.73
2018-07-21T07:40:19.039Z,1012.71
2018-07-21T07:41:27.902Z,1012.69
2018-07-21T07:42:36.765Z,1012.68
2018-07-21T07:43:45.628Z,1012.61
2018-07-21T07:44:54.490Z,1012.6
2018-07-21T07:46:03.350Z,1012.6
2018-07-21T07:47:12.214Z,1012.6
2018-07-21T07:48:21.353Z,1012.62
2018-07-21T07:49:30.215Z,1012.67
2018-07-21T07:50:39.078Z,1012.64
2018-07-21T07:51:47.941Z,1012.63
2018-07-21T07:52:56.802Z,1012.63
2018-07-21T07:54:05.815Z,1012.62
2018-07-21T07:55:14.679Z,1012.65
2018-07-21T07:56:23.539Z,1012.65
2018-07-21T07:57:32.402Z,1012.63
2018-07-21T07:58:41.271Z,1012.56
2018-07-21T07:59:50.278Z,1012.54
2018-07-21T08:00:59.143Z,1012.52
2018-07-21T08:02:08.017Z,1012.48
2018-07-21T08:03:17.152Z,1012.49
2018-07-21T08:04:26.019Z,1012.5
2018-07-21T08:05:34.979Z,1012.53
2018-07-21T08:06:43.841Z,1012.49
2018-07-21T08:07:52.706Z,1012.55
2018-07-21T08:09:01.568Z,1012.49
2018-07-21T08:10:10.433Z,1012.52
2018-07-21T08:11:19.672Z,1012.49
2018-07-21T08:12:28.532Z,1012.5
2018-07-21T08:13:37.394Z,1012.49
2018-07-21T08:14:46.257Z,1012.53
2018-07-21T08:15:55.120Z,1012.52
2018-07-21T08:17:04.264Z,1012.49
2018-07-21T08:18:13.133Z,1012.55
2018-07-21T08:19:22.321Z,1012.5
2018-07-21T08:20:31.500Z,1012.51
2018-07-21T08:21:40.363Z,1012.49
2018-07-21T08:22:49.376Z,1012.56
2018-07-21T08:23:58.237Z,1012.54
2018-07-21T08:25:07.100Z,1012.55
2018-07-21T08:26:15.964Z,1012.55
2018-07-21T08:27:24.828Z,1012.55
2018-07-21T08:28:33.977Z,1012.6
2018-07-21T08:29:42.832Z,1012.6
2018-07-21T08:30:51.696Z,1012.65
2018-07-21T08:32:00.558Z,1012.61
2018-07-21T08:33:09.422Z,1012.63
2018-07-21T08:34:18.288Z,1012.65
2018-07-21T08:35:27.153Z,1012.68
2018-07-21T08:36:36.296Z,1012.62
2018-07-21T08:37:45.453Z,1012.68
2018-07-21T08:38:54.591Z,1012.68
2018-07-21T08:40:03.456Z,1012.68
2018-07-21T08:41:12.594Z,1012.67
2018-07-21T08:42:21.459Z,1012.71
2018-07-21T08:43:30.324Z,1012.71
2018-07-21T08:44:39.201Z,1012.71
2018-07-21T08:45:48.064Z,1012.66
2018-07-21T08:46:56.928Z,1012.69
2018-07-21T08:48:06.068Z,1012.66
2018-07-21T08:49:14.932Z,1012.61
2018-07-21T08:50:23.795Z,1012.62
2018-07-21T08:51:32.661Z,1012.64
2018-07-21T08:52:41.805Z,1012.6
2018-07-21T08:53:50.666Z,1012.63
2018-07-21T08:54:59.530Z,1012.57
2018-07-21T08:56:08.449Z,1012.62
2018-07-21T08:57:18.301Z,1012.61
2018-07-21T08:58:27.165Z,1012.63
2018-07-21T08:59:36.031Z,1012.59
2018-07-21T09:00:44.894Z,1012.61
2018-07-21T09:01:53.765Z,1012.66
2018-07-21T09:03:02.628Z,1012.66
2018-07-21T09:04:11.489Z,1012.62
2018-07-21T09:05:20.355Z,1012.63
2018-07-21T09:06:29.218Z,1012.7
2018-07-21T09:07:38.367Z,1012.66
2018-07-21T09:08:47.379Z,1012.7
2018-07-21T09:09:56.245Z,1012.65
2018-07-21T09:11:05.390Z,1012.68
2018-07-21T09:12:14.304Z,1012.71
2018-07-21T09:13:23.446Z,1012.67
2018-07-21T09:14:32.461Z,1012.68
2018-07-21T09:15:41.325Z,1012.71
2018-07-21T09:16:50.192Z,1012.67
2018-07-21T09:17:59.057Z,1012.7
2018-07-21T09:19:07.920Z,1012.68
2018-07-21T09:20:17.163Z,1012.74
2018-07-21T09:21:26.046Z,1012.67
2018-07-21T09:22:34.888Z,1012.68
2018-07-21T09:23:43.753Z,1012.66
2018-07-21T09:24:52.617Z,1012.67
2018-07-21T09:26:01.632Z,1012.69
2018-07-21T09:27:10.496Z,1012.7
2018-07-21T09:28:19.634Z,1012.62
2018-07-21T09:29:28.498Z,1012.61
2018-07-21T09:30:37.365Z,1012.62
2018-07-21T09:31:46.379Z,1012.62
2018-07-21T09:32:55.527Z,1012.64
2018-07-21T09:34:04.431Z,1012.61
2018-07-21T09:35:13.558Z,1012.62
2018-07-21T09:36:22.422Z,1012.66
2018-07-21T09:37:31.447Z,1012.62
2018-07-21T09:38:40.309Z,1012.66
2018-07-21T09:39:49.172Z,1012.63
2018-07-21T09:40:58.043Z,1012.68
2018-07-21T09:42:06.903Z,1012.66
2018-07-21T09:43:15.765Z,1012.67
2018-07-21T09:44:24.679Z,1012.68
2018-07-21T09:45:33.541Z,1012.7
2018-07-21T09:46:42.408Z,1012.71
2018-07-21T09:47:51.270Z,1012.72
2018-07-21T09:49:00.283Z,1012.71
2018-07-21T09:50:09.440Z,1012.71
2018-07-21T09:51:18.302Z,1012.71
2018-07-21T09:52:27.168Z,1012.71
2018-07-21T09:53:36.307Z,1012.7
2018-07-21T09:54:45.171Z,1012.7
2018-07-21T09:55:54.220Z,1012.7
2018-07-21T09:57:03.718Z,1012.75
2018-07-21T09:58:12.583Z,1012.71
2018-07-21T09:59:21.448Z,1012.73
2018-07-21T10:00:30.591Z,1012.77
2018-07-21T10:01:39.511Z,1012.78
2018-07-21T10:02:48.724Z,1012.74
2018-07-21T10:03:58.237Z,1012.81
2018-07-21T10:05:07.099Z,1012.85
2018-07-21T10:06:16.240Z,1012.77
2018-07-21T10:07:25.104Z,1012.85
2018-07-21T10:08:34.245Z,1012.88
2018-07-21T10:09:43.113Z,1012.89
2018-07-21T10:10:51.979Z,1012.91
2018-07-21T10:12:01.128Z,1012.88
2018-07-21T10:13:09.993Z,1012.91
2018-07-21T10:14:19.136Z,1012.9
2018-07-21T10:15:28.074Z,1012.86
2018-07-21T10:16:37.229Z,1012.88
2018-07-21T10:17:46.377Z,1012.85
2018-07-21T10:18:55.516Z,1012.82
2018-07-21T10:20:04.382Z,1012.86
2018-07-21T10:21:13.250Z,1012.88
2018-07-21T10:22:22.117Z,1012.83
2018-07-21T10:23:31.332Z,1012.83
2018-07-21T10:24:40.473Z,1012.82
2018-07-21T10:25:49.340Z,1012.8
2018-07-21T10:26:58.485Z,1012.79
2018-07-21T10:28:07.681Z,1012.8
2018-07-21T10:29:16.856Z,1012.8
2018-07-21T10:30:25.722Z,1012.83
2018-07-21T10:31:34.867Z,1012.81
2018-07-21T10:32:43.735Z,1012.78
2018-07-21T10:33:52.885Z,1012.77
2018-07-21T10:35:02.030Z,1012.8
2018-07-21T10:36:11.184Z,1012.78
2018-07-21T10:37:20.047Z,1012.75
2018-07-21T10:38:28.915Z,1012.75
2018-07-21T10:39:37.779Z,1012.74
2018-07-21T10:40:46.807Z,1012.73
2018-07-21T10:41:55.950Z,1012.68
2018-07-21T10:43:05.100Z,1012.67
2018-07-21T10:44:13.966Z,1012.66
2018-07-21T10:45:22.832Z,1012.66
2018-07-21T10:46:31.850Z,1012.72
2018-07-21T10:47:41.000Z,1012.69
2018-07-21T10:48:49.861Z,1012.68
2018-07-21T10:49:59.006Z,1012.67
2018-07-21T10:51:07.865Z,1012.66
2018-07-21T10:52:16.732Z,1012.63
2018-07-21T10:53:26.148Z,1012.65
2018-07-21T10:54:35.016Z,1012.64
2018-07-21T10:55:43.882Z,1012.64
2018-07-21T10:56:52.749Z,1012.64
2018-07-21T10:58:01.968Z,1012.64
2018-07-21T10:59:10.833Z,1012.62
2018-07-21T11:00:20.017Z,1012.61
2018-07-21T11:01:28.851Z,1012.61
2018-07-21T11:02:37.715Z,1012.61
2018-07-21T11:03:46.584Z,1012.62
2018-07-21T11:04:55.723Z,1012.63
2018-07-21T11:06:04.589Z,1012.66
2018-07-21T11:07:13.730Z,1012.67
2018-07-21T11:08:22.594Z,1012.64
2018-07-21T11:09:31.460Z,1012.63
2018-07-21T11:10:40.333Z,1012.61
2018-07-21T11:11:49.473Z,1012.63
2018-07-21T11:12:58.338Z,1012.68
2018-07-21T11:14:07.484Z,1012.68
2018-07-21T11:15:16.784Z,1012.65
2018-07-21T11:16:26.360Z,1012.61
2018-07-21T11:17:35.221Z,1012.64
2018-07-21T11:18:44.089Z,1012.66
2018-07-21T11:19:53.520Z,1012.66
2018-07-21T11:21:02.731Z,1012.66
2018-07-21T11:22:11.599Z,1012.66
2018-07-21T11:23:20.469Z,1012.67
2018-07-21T11:24:29.610Z,1012.64
2018-07-21T11:25:38.476Z,1012.61
2018-07-21T11:26:47.442Z,1012.64
2018-07-21T11:27:56.313Z,1012.59
2018-07-21T11:29:05.176Z,1012.66
2018-07-21T11:30:14.321Z,1012.62
2018-07-21T11:31:23.462Z,1012.62
2018-07-21T11:32:32.329Z,1012.62
2018-07-21T11:33:41.200Z,1012.59
2018-07-21T11:34:50.069Z,1012.61
2018-07-21T11:35:59.265Z,1012.63
2018-07-21T11:37:07.799Z,1012.59
2018-07-21T11:38:16.769Z,1012.56
2018-07-21T11:39:25.634Z,1012.53
2018-07-21T11:40:34.501Z,1012.51
2018-07-21T11:41:43.643Z,1012.53
2018-07-21T11:42:52.510Z,1012.48
2018-07-21T11:44:01.379Z,1012.51
2018-07-21T11:45:10.244Z,1012.48
2018-07-21T11:46:19.386Z,1012.49
2018-07-21T11:47:28.252Z,1012.52
2018-07-21T11:48:37.119Z,1012.49
2018-07-21T11:49:46.136Z,1012.5
2018-07-21T11:50:55.005Z,1012.5
2018-07-21T11:52:03.872Z,1012.55
2018-07-21T11:53:12.738Z,1012.58
2018-07-21T11:54:21.604Z,1012.57
2018-07-21T11:55:30.475Z,1012.59
2018-07-21T11:56:39.338Z,1012.6
2018-07-21T11:57:48.209Z,1012.62
2018-07-21T11:58:57.075Z,1012.64
2018-07-21T12:00:05.940Z,1012.6
2018-07-21T12:01:15.096Z,1012.55
2018-07-21T12:02:23.957Z,1012.57
2018-07-21T12:03:33.101Z,1012.59
2018-07-21T12:04:42.253Z,1012.56
2018-07-21T12:05:51.110Z,1012.55
2018-07-21T12:07:00.077Z,1012.57
2018-07-21T12:08:08.947Z,1012.57
2018-07-21T12:09:18.090Z,1012.54
2018-07-21T12:10:27.233Z,1012.56
2018-07-21T12:11:36.104Z,1012.54
2018-07-21T12:12:45.327Z,1012.52
2018-07-21T12:13:54.491Z,1012.49
2018-07-21T12:15:03.637Z,1012.48
2018-07-21T12:16:12.504Z,1012.42
2018-07-21T12:17:21.375Z,1012.41
2018-07-21T12:18:30.594Z,1012.4
2018-07-21T12:19:39.463Z,1012.38
2018-07-21T12:20:48.616Z,1012.37
2018-07-21T12:21:57.762Z,1012.4
2018-07-21T12:23:06.635Z,1012.37
2018-07-21T12:24:15.929Z,1012.4
2018-07-21T12:25:24.801Z,1012.4
2018-07-21T12:26:33.977Z,1012.36
2018-07-21T12:27:43.217Z,1012.38
2018-07-21T12:28:52.086Z,1012.39
2018-07-21T12:30:01.107Z,1012.4
2018-07-21T12:31:10.253Z,1012.36
2018-07-21T12:32:19.121Z,1012.37
2018-07-21T12:33:27.989Z,1012.39
2018-07-21T12:34:36.857Z,1012.38
2018-07-21T12:35:45.876Z,1012.37
2018-07-21T12:36:54.744Z,1012.38
2018-07-21T12:38:03.896Z,1012.41
2018-07-21T12:39:12.763Z,1012.38
2018-07-21T12:40:21.632Z,1012.36
2018-07-21T12:41:30.501Z,1012.4
2018-07-21T12:42:39.369Z,1012.34
2018-07-21T12:43:48.238Z,1012.32
2018-07-21T12:44:57.428Z,1012.31
2018-07-21T12:46:06.260Z,1012.29
2018-07-21T12:47:15.186Z,1012.3
2018-07-21T12:48:23.997Z,1012.31
2018-07-21T12:49:33.143Z,1012.33
2018-07-21T12:50:42.293Z,1012.27
2018-07-21T12:51:51.168Z,1012.29
2018-07-21T12:53:00.135Z,1012.27
2018-07-21T12:54:09.009Z,1012.31
2018-07-21T12:55:17.980Z,1012.33
2018-07-21T12:56:26.850Z,1012.3
2018-07-21T12:57:35.718Z,1012.31
2018-07-21T12:58:44.737Z,1012.33
2018-07-21T12:59:53.608Z,1012.38
2018-07-21T13:01:02.490Z,1012.35
2018-07-21T13:02:11.362Z,1012.3
2018-07-21T13:03:20.528Z,1012.31
2018-07-21T13:04:29.735Z,1012.33
2018-07-21T13:05:38.603Z,1012.34
2018-07-21T13:06:47.471Z,1012.33
2018-07-21T13:07:56.339Z,1012.36
2018-07-21T13:09:05.206Z,1012.32
2018-07-21T13:10:14.428Z,1012.35
2018-07-21T13:11:23.298Z,1012.35
2018-07-21T13:12:32.450Z,1012.44
2018-07-21T13:13:41.320Z,1012.42
2018-07-21T13:14:50.188Z,1012.42
2018-07-21T13:15:59.058Z,1012.41
2018-07-21T13:17:07.928Z,1012.41
2018-07-21T13:18:17.077Z,1012.38
2018-07-21T13:19:25.959Z,1012.42
2018-07-21T13:20:34.815Z,1012.44
2018-07-21T13:21:43.687Z,1012.44
2018-07-21T13:22:52.563Z,1012.36
2018-07-21T13:24:01.433Z,1012.38
2018-07-21T13:25:10.303Z,1012.45
2018-07-21T13:26:19.171Z,1012.42
2018-07-21T13:27:28.189Z,1012.35
2018-07-21T13:28:37.058Z,1012.42
2018-07-21T13:29:45.927Z,1012.38
2018-07-21T13:30:54.795Z,1012.39
2018-07-21T13:32:03.667Z,1012.34
2018-07-21T13:33:12.539Z,1012.32
2018-07-21T13:34:21.766Z,1012.3
2018-07-21T13:35:30.637Z,1012.31
2018-07-21T13:36:39.507Z,1012.29
2018-07-21T13:37:48.378Z,1012.28
2018-07-21T13:38:57.401Z,1012.29
2018-07-21T13:40:06.549Z,1012.32
2018-07-21T13:41:15.422Z,1012.28
2018-07-21T13:42:24.393Z,1012.31
2018-07-21T13:43:33.265Z,1012.32
2018-07-21T13:44:42.137Z,1012.25
2018-07-21T13:45:51.009Z,1012.3
2018-07-21T13:46:59.886Z,1012.28
2018-07-21T13:48:08.755Z,1012.32
2018-07-21T13:49:17.623Z,1012.27
2018-07-21T13:50:26.643Z,1012.27
2018-07-21T13:51:35.514Z,1012.28
2018-07-21T13:52:44.384Z,1012.27
2018-07-21T13:53:53.572Z,1012.21
2018-07-21T13:55:02.826Z,1012.23
2018-07-21T13:56:12.056Z,1012.29
2018-07-21T13:57:21.199Z,1012.26
2018-07-21T13:58:30.903Z,1012.3